sensor_id;sensor_type;location;lat;lon;timestamp;temperature;humidity
5711;DHT22;61291;52.524;13.422;2023-04-02T00:02:59;4.30;99.90
5711;DHT22;61291;52.524;13.422;2023-04-02T00:08:15;4.50;99.90
5711;DHT22;61291;52.524;13.422;2023-04-02T00:10:47;4.40;99.90
5711;DHT22;61291;52.524;13.422;2023-04-02T00:15:45;4.30;99.90
5711;DHT22;61291;52.524;13.422;2023-04-02T00:18:16;4.30;99.90
5711;DHT22;61291;52.524;13.422;2023-04-02T00:20:56;4.20;99.90
5711;DHT22;61291;52.524;13.422;2023-04-02T00:23:25;4.40;99.90
5711;DHT22;61291;52.524;13.422;2023-04-02T00:25:51;4.30;99.90
5711;DHT22;61291;52.524;13.422;2023-04-02T00:28:19;4.30;99.90
5711;DHT22;61291;52.524;13.422;2023-04-02T00:30:47;4.30;99.90
5711;DHT22;61291;52.524;13.422;2023-04-02T00:33:16;4.30;99.90
5711;DHT22;61291;52.524;13.422;2023-04-02T00:35:42;4.30;99.90
5711;DHT22;61291;52.524;13.422;2023-04-02T00:38:19;4.30;99.90
5711;DHT22;61291;52.524;13.422;2023-04-02T00:40:46;4.30;99.90
5711;DHT22;61291;52.524;13.422;2023-04-02T00:43:13;4.30;99.90
5711;DHT22;61291;52.524;13.422;2023-04-02T00:45:42;4.30;99.90
5711;DHT22;61291;52.524;13.422;2023-04-02T00:53:44;4.20;99.90
5711;DHT22;61291;52.524;13.422;2023-04-02T00:56:14;4.10;99.90
5711;DHT22;61291;52.524;13.422;2023-04-02T00:58:41;4.20;99.90
5711;DHT22;61291;52.524;13.422;2023-04-02T01:01:21;4.20;99.90
5711;DHT22;61291;52.524;13.422;2023-04-02T01:04:25;4.20;99.90
5711;DHT22;61291;52.524;13.422;2023-04-02T01:06:51;4.10;99.90
5711;DHT22;61291;52.524;13.422;2023-04-02T01:09:31;4.20;99.90
5711;DHT22;61291;52.524;13.422;2023-04-02T01:12:25;4.20;99.90
5711;DHT22;61291;52.524;13.422;2023-04-02T01:18:13;4.10;99.90
5711;DHT22;61291;52.524;13.422;2023-04-02T01:20:58;4.10;99.90
5711;DHT22;61291;52.524;13.422;2023-04-02T01:23:34;4.20;99.90
5711;DHT22;61291;52.524;13.422;2023-04-02T01:26:34;4.20;99.90
5711;DHT22;61291;52.524;13.422;2023-04-02T01:29:06;4.10;99.90
5711;DHT22;61291;52.524;13.422;2023-04-02T01:31:33;4.10;99.90
5711;DHT22;61291;52.524;13.422;2023-04-02T01:34:01;4.10;99.90
5711;DHT22;61291;52.524;13.422;2023-04-02T01:36:33;4.00;99.90
5711;DHT22;61291;52.524;13.422;2023-04-02T01:39:23;4.20;99.90
5711;DHT22;61291;52.524;13.422;2023-04-02T01:44:43;4.20;99.90
5711;DHT22;61291;52.524;13.422;2023-04-02T01:47:13;4.20;99.90
5711;DHT22;61291;52.524;13.422;2023-04-02T01:49:41;4.20;99.90
5711;DHT22;61291;52.524;13.422;2023-04-02T01:52:08;4.30;99.90
5711;DHT22;61291;52.524;13.422;2023-04-02T01:54:36;4.30;99.90
5711;DHT22;61291;52.524;13.422;2023-04-02T01:57:03;4.30;99.90
5711;DHT22;61291;52.524;13.422;2023-04-02T01:59:29;4.30;99.90
5711;DHT22;61291;52.524;13.422;2023-04-02T02:04:23;4.20;99.90
5711;DHT22;61291;52.524;13.422;2023-04-02T02:06:49;4.20;99.90
5711;DHT22;61291;52.524;13.422;2023-04-02T02:09:20;4.20;99.90
5711;DHT22;61291;52.524;13.422;2023-04-02T02:11:50;4.10;99.90
5711;DHT22;61291;52.524;13.422;2023-04-02T02:14:26;4.10;99.90
5711;DHT22;61291;52.524;13.422;2023-04-02T02:16:54;4.10;99.90
5711;DHT22;61291;52.524;13.422;2023-04-02T02:21:55;4.10;99.90
5711;DHT22;61291;52.524;13.422;2023-04-02T02:24:24;4.10;99.90
5711;DHT22;61291;52.524;13.422;2023-04-02T02:29:37;4.10;99.90
5711;DHT22;61291;52.524;13.422;2023-04-02T02:32:06;4.10;99.90
5711;DHT22;61291;52.524;13.422;2023-04-02T02:34:38;4.10;99.90
5711;DHT22;61291;52.524;13.422;2023-04-02T02:37:11;4.00;99.90
5711;DHT22;61291;52.524;13.422;2023-04-02T02:39:42;4.10;99.90
5711;DHT22;61291;52.524;13.422;2023-04-02T02:42:19;4.00;99.90
5711;DHT22;61291;52.524;13.422;2023-04-02T02:44:48;4.10;99.90
5711;DHT22;61291;52.524;13.422;2023-04-02T02:47:24;4.10;99.90
5711;DHT22;61291;52.524;13.422;2023-04-02T02:49:54;4.00;99.90
5711;DHT22;61291;52.524;13.422;2023-04-02T02:52:30;4.10;99.90
5711;DHT22;61291;52.524;13.422;2023-04-02T02:55:27;4.00;99.90
5711;DHT22;61291;52.524;13.422;2023-04-02T02:57:57;4.00;99.90
5711;DHT22;61291;52.524;13.422;2023-04-02T03:00:25;4.00;99.90
5711;DHT22;61291;52.524;13.422;2023-04-02T03:02:53;4.00;99.90
5711;DHT22;61291;52.524;13.422;2023-04-02T03:05:25;4.00;99.90
5711;DHT22;61291;52.524;13.422;2023-04-02T03:07:53;4.00;99.90
5711;DHT22;61291;52.524;13.422;2023-04-02T03:11:00;4.00;99.90
5711;DHT22;61291;52.524;13.422;2023-04-02T03:13:32;4.00;99.90
5711;DHT22;61291;52.524;13.422;2023-04-02T03:19:00;4.10;99.90
5711;DHT22;61291;52.524;13.422;2023-04-02T03:21:30;4.00;99.90
5711;DHT22;61291;52.524;13.422;2023-04-02T03:24:03;4.10;99.90
5711;DHT22;61291;52.524;13.422;2023-04-02T03:26:45;4.10;99.90
5711;DHT22;61291;52.524;13.422;2023-04-02T03:29:21;4.10;99.90
5711;DHT22;61291;52.524;13.422;2023-04-02T03:31:55;4.10;99.90
5711;DHT22;61291;52.524;13.422;2023-04-02T03:34:27;4.10;99.90
5711;DHT22;61291;52.524;13.422;2023-04-02T03:37:00;4.10;99.90
5711;DHT22;61291;52.524;13.422;2023-04-02T03:39:40;4.10;99.90
5711;DHT22;61291;52.524;13.422;2023-04-02T03:42:14;4.10;99.90
5711;DHT22;61291;52.524;13.422;2023-04-02T03:47:15;4.10;99.90
5711;DHT22;61291;52.524;13.422;2023-04-02T03:52:35;4.20;99.90
5711;DHT22;61291;52.524;13.422;2023-04-02T03:55:12;4.20;99.90
5711;DHT22;61291;52.524;13.422;2023-04-02T04:01:10;4.20;99.90
5711;DHT22;61291;52.524;13.422;2023-04-02T04:03:46;4.20;99.90
5711;DHT22;61291;52.524;13.422;2023-04-02T04:06:28;4.20;99.90
5711;DHT22;61291;52.524;13.422;2023-04-02T04:09:07;4.10;99.90
5711;DHT22;61291;52.524;13.422;2023-04-02T04:11:36;4.10;99.90
5711;DHT22;61291;52.524;13.422;2023-04-02T04:19:45;4.30;99.90
5711;DHT22;61291;52.524;13.422;2023-04-02T04:22:17;4.30;99.90
5711;DHT22;61291;52.524;13.422;2023-04-02T04:24:44;4.20;99.90
5711;DHT22;61291;52.524;13.422;2023-04-02T04:27:21;4.20;99.90
5711;DHT22;61291;52.524;13.422;2023-04-02T04:29:58;4.20;99.90
5711;DHT22;61291;52.524;13.422;2023-04-02T04:32:37;4.20;99.90
5711;DHT22;61291;52.524;13.422;2023-04-02T04:35:20;4.20;99.90
5711;DHT22;61291;52.524;13.422;2023-04-02T04:37:49;4.30;99.90
5711;DHT22;61291;52.524;13.422;2023-04-02T04:40:25;4.30;99.90
5711;DHT22;61291;52.524;13.422;2023-04-02T04:42:55;4.30;99.90
5711;DHT22;61291;52.524;13.422;2023-04-02T04:45:34;4.30;99.90
5711;DHT22;61291;52.524;13.422;2023-04-02T04:48:19;4.30;99.90
5711;DHT22;61291;52.524;13.422;2023-04-02T04:51:20;4.30;99.90
5711;DHT22;61291;52.524;13.422;2023-04-02T04:53:49;4.30;99.90
5711;DHT22;61291;52.524;13.422;2023-04-02T04:56:19;4.40;99.90
5711;DHT22;61291;52.524;13.422;2023-04-02T04:59:02;4.30;99.90
5711;DHT22;61291;52.524;13.422;2023-04-02T05:01:36;4.30;99.90
5711;DHT22;61291;52.524;13.422;2023-04-02T05:04:22;4.40;99.90
5711;DHT22;61291;52.524;13.422;2023-04-02T05:06:56;4.40;99.90
5711;DHT22;61291;52.524;13.422;2023-04-02T05:09:40;4.40;99.90
5711;DHT22;61291;52.524;13.422;2023-04-02T05:17:51;4.60;99.90
5711;DHT22;61291;52.524;13.422;2023-04-02T05:20:23;4.60;99.90
5711;DHT22;61291;52.524;13.422;2023-04-02T05:25:50;4.60;99.90
5711;DHT22;61291;52.524;13.422;2023-04-02T05:28:24;4.60;99.90
5711;DHT22;61291;52.524;13.422;2023-04-02T05:30:54;4.70;99.90
5711;DHT22;61291;52.524;13.422;2023-04-02T05:33:25;4.80;99.90
5711;DHT22;61291;52.524;13.422;2023-04-02T05:36:09;4.60;99.90
5711;DHT22;61291;52.524;13.422;2023-04-02T05:38:37;4.80;99.90
5711;DHT22;61291;52.524;13.422;2023-04-02T05:41:13;4.80;99.90
5711;DHT22;61291;52.524;13.422;2023-04-02T05:43:45;4.80;99.90
5711;DHT22;61291;52.524;13.422;2023-04-02T05:46:17;4.70;99.90
5711;DHT22;61291;52.524;13.422;2023-04-02T05:48:53;4.80;99.90
5711;DHT22;61291;52.524;13.422;2023-04-02T05:51:40;4.90;99.90
5711;DHT22;61291;52.524;13.422;2023-04-02T05:57:30;4.90;99.90
5711;DHT22;61291;52.524;13.422;2023-04-02T05:59:59;5.00;99.90
5711;DHT22;61291;52.524;13.422;2023-04-02T06:02:34;5.10;99.90
5711;DHT22;61291;52.524;13.422;2023-04-02T06:05:05;5.20;99.90
5711;DHT22;61291;52.524;13.422;2023-04-02T06:10:35;5.50;99.90
5711;DHT22;61291;52.524;13.422;2023-04-02T06:13:05;5.60;99.90
5711;DHT22;61291;52.524;13.422;2023-04-02T06:15:32;5.70;99.90
5711;DHT22;61291;52.524;13.422;2023-04-02T06:20:29;5.40;99.90
5711;DHT22;61291;52.524;13.422;2023-04-02T06:23:00;5.70;99.90
5711;DHT22;61291;52.524;13.422;2023-04-02T06:25:32;6.20;99.90
5711;DHT22;61291;52.524;13.422;2023-04-02T06:28:01;6.80;99.90
5711;DHT22;61291;52.524;13.422;2023-04-02T06:30:37;7.10;99.90
5711;DHT22;61291;52.524;13.422;2023-04-02T06:33:04;7.10;99.90
5711;DHT22;61291;52.524;13.422;2023-04-02T06:35:30;7.20;99.90
5711;DHT22;61291;52.524;13.422;2023-04-02T06:37:59;7.20;99.90
5711;DHT22;61291;52.524;13.422;2023-04-02T06:40:46;7.60;99.90
5711;DHT22;61291;52.524;13.422;2023-04-02T06:43:26;7.80;99.90
5711;DHT22;61291;52.524;13.422;2023-04-02T06:45:59;7.90;99.90
5711;DHT22;61291;52.524;13.422;2023-04-02T06:48:26;7.20;99.90
5711;DHT22;61291;52.524;13.422;2023-04-02T06:51:11;6.70;99.90
5711;DHT22;61291;52.524;13.422;2023-04-02T06:53:42;6.90;99.90
5711;DHT22;61291;52.524;13.422;2023-04-02T06:59:25;7.70;99.90
5711;DHT22;61291;52.524;13.422;2023-04-02T07:01:59;7.90;99.90
5711;DHT22;61291;52.524;13.422;2023-04-02T07:04:28;7.70;99.90
5711;DHT22;61291;52.524;13.422;2023-04-02T07:06:53;8.70;99.90
5711;DHT22;61291;52.524;13.422;2023-04-02T07:09:19;8.40;99.90
5711;DHT22;61291;52.524;13.422;2023-04-02T07:11:45;8.40;99.90
5711;DHT22;61291;52.524;13.422;2023-04-02T07:14:11;8.80;99.90
5711;DHT22;61291;52.524;13.422;2023-04-02T07:16:37;8.30;99.90
5711;DHT22;61291;52.524;13.422;2023-04-02T07:19:03;8.30;99.90
5711;DHT22;61291;52.524;13.422;2023-04-02T07:21:29;8.90;99.90
5711;DHT22;61291;52.524;13.422;2023-04-02T07:23:55;9.60;99.90
5711;DHT22;61291;52.524;13.422;2023-04-02T07:26:26;9.50;99.90
5711;DHT22;61291;52.524;13.422;2023-04-02T07:28:53;9.30;99.90
5711;DHT22;61291;52.524;13.422;2023-04-02T07:31:42;9.50;99.90
5711;DHT22;61291;52.524;13.422;2023-04-02T07:34:08;9.60;99.90
5711;DHT22;61291;52.524;13.422;2023-04-02T07:36:34;9.00;99.90
5711;DHT22;61291;52.524;13.422;2023-04-02T07:39:00;9.20;99.90
5711;DHT22;61291;52.524;13.422;2023-04-02T07:41:26;9.20;99.90
5711;DHT22;61291;52.524;13.422;2023-04-02T07:43:52;9.50;99.90
5711;DHT22;61291;52.524;13.422;2023-04-02T07:46:18;9.40;99.90
5711;DHT22;61291;52.524;13.422;2023-04-02T07:48:48;9.00;99.90
5711;DHT22;61291;52.524;13.422;2023-04-02T07:51:23;8.70;99.90
5711;DHT22;61291;52.524;13.422;2023-04-02T07:53:50;8.90;99.90
5711;DHT22;61291;52.524;13.422;2023-04-02T07:56:19;9.20;99.90
5711;DHT22;61291;52.524;13.422;2023-04-02T07:58:45;8.50;99.90
5711;DHT22;61291;52.524;13.422;2023-04-02T08:01:22;8.60;99.90
5711;DHT22;61291;52.524;13.422;2023-04-02T08:03:55;8.00;99.90
5711;DHT22;61291;52.524;13.422;2023-04-02T08:06:21;7.80;99.90
5711;DHT22;61291;52.524;13.422;2023-04-02T08:08:48;7.90;99.90
5711;DHT22;61291;52.524;13.422;2023-04-02T08:11:32;8.10;99.90
5711;DHT22;61291;52.524;13.422;2023-04-02T08:13:57;8.00;99.90
5711;DHT22;61291;52.524;13.422;2023-04-02T08:16:23;8.10;99.90
5711;DHT22;61291;52.524;13.422;2023-04-02T08:18:49;8.50;99.90
5711;DHT22;61291;52.524;13.422;2023-04-02T08:21:15;8.00;99.90
5711;DHT22;61291;52.524;13.422;2023-04-02T08:23:40;8.80;99.90
5711;DHT22;61291;52.524;13.422;2023-04-02T08:26:08;8.30;99.90
5711;DHT22;61291;52.524;13.422;2023-04-02T08:28:33;8.20;99.90
5711;DHT22;61291;52.524;13.422;2023-04-02T08:30:59;8.50;99.90
5711;DHT22;61291;52.524;13.422;2023-04-02T08:33:25;8.10;99.90
5711;DHT22;61291;52.524;13.422;2023-04-02T08:35:51;8.40;99.90
5711;DHT22;61291;52.524;13.422;2023-04-02T08:38:18;8.20;99.90
5711;DHT22;61291;52.524;13.422;2023-04-02T08:40:48;9.20;99.90
5711;DHT22;61291;52.524;13.422;2023-04-02T08:43:24;9.20;99.90
5711;DHT22;61291;52.524;13.422;2023-04-02T08:48:36;8.80;99.90
5711;DHT22;61291;52.524;13.422;2023-04-02T08:51:03;8.30;99.90
5711;DHT22;61291;52.524;13.422;2023-04-02T08:53:34;9.30;99.90
5711;DHT22;61291;52.524;13.422;2023-04-02T08:56:22;8.90;99.90
5711;DHT22;61291;52.524;13.422;2023-04-02T08:58:53;8.50;99.90
5711;DHT22;61291;52.524;13.422;2023-04-02T09:04:11;9.40;99.80
5711;DHT22;61291;52.524;13.422;2023-04-02T09:06:37;8.70;99.50
5711;DHT22;61291;52.524;13.422;2023-04-02T09:09:03;9.00;99.40
5711;DHT22;61291;52.524;13.422;2023-04-02T09:12:01;9.30;99.60
5711;DHT22;61291;52.524;13.422;2023-04-02T09:14:49;9.80;99.70
5711;DHT22;61291;52.524;13.422;2023-04-02T09:17:22;9.50;99.50
5711;DHT22;61291;52.524;13.422;2023-04-02T09:20:02;8.10;99.80
5711;DHT22;61291;52.524;13.422;2023-04-02T09:22:31;8.60;99.90
5711;DHT22;61291;52.524;13.422;2023-04-02T09:25:00;9.30;99.90
5711;DHT22;61291;52.524;13.422;2023-04-02T09:27:29;9.20;99.70
5711;DHT22;61291;52.524;13.422;2023-04-02T09:32:48;8.60;99.60
5711;DHT22;61291;52.524;13.422;2023-04-02T09:35:22;8.10;99.80
5711;DHT22;61291;52.524;13.422;2023-04-02T09:38:21;7.80;99.80
5711;DHT22;61291;52.524;13.422;2023-04-02T09:40:57;7.50;99.60
5711;DHT22;61291;52.524;13.422;2023-04-02T09:45:57;7.60;99.70
5711;DHT22;61291;52.524;13.422;2023-04-02T09:48:35;7.70;99.90
5711;DHT22;61291;52.524;13.422;2023-04-02T09:51:04;7.10;99.10
5711;DHT22;61291;52.524;13.422;2023-04-02T09:53:36;7.40;99.20
5711;DHT22;61291;52.524;13.422;2023-04-02T09:56:17;7.60;98.90
5711;DHT22;61291;52.524;13.422;2023-04-02T09:58:44;7.90;99.10
5711;DHT22;61291;52.524;13.422;2023-04-02T10:01:27;7.90;98.40
5711;DHT22;61291;52.524;13.422;2023-04-02T10:03:53;8.20;98.60
5711;DHT22;61291;52.524;13.422;2023-04-02T10:06:19;8.00;98.50
5711;DHT22;61291;52.524;13.422;2023-04-02T10:08:45;8.60;98.90
5711;DHT22;61291;52.524;13.422;2023-04-02T10:11:18;8.50;98.70
5711;DHT22;61291;52.524;13.422;2023-04-02T10:14:00;7.60;98.70
5711;DHT22;61291;52.524;13.422;2023-04-02T10:16:34;8.00;99.00
5711;DHT22;61291;52.524;13.422;2023-04-02T10:21:49;8.90;98.40
5711;DHT22;61291;52.524;13.422;2023-04-02T10:24:15;10.20;97.90
5711;DHT22;61291;52.524;13.422;2023-04-02T10:27:03;9.90;97.50
5711;DHT22;61291;52.524;13.422;2023-04-02T10:29:45;10.20;97.40
5711;DHT22;61291;52.524;13.422;2023-04-02T10:32:25;10.10;96.60
5711;DHT22;61291;52.524;13.422;2023-04-02T10:38:08;10.00;97.60
5711;DHT22;61291;52.524;13.422;2023-04-02T10:40:42;10.50;96.40
5711;DHT22;61291;52.524;13.422;2023-04-02T10:46:14;10.20;95.50
5711;DHT22;61291;52.524;13.422;2023-04-02T10:52:09;10.60;95.60
5711;DHT22;61291;52.524;13.422;2023-04-02T10:54:55;9.70;96.10
5711;DHT22;61291;52.524;13.422;2023-04-02T10:57:39;9.50;96.60
5711;DHT22;61291;52.524;13.422;2023-04-02T11:02:45;10.20;95.80
5711;DHT22;61291;52.524;13.422;2023-04-02T11:08:01;10.90;95.50
5711;DHT22;61291;52.524;13.422;2023-04-02T11:10:31;10.40;95.70
5711;DHT22;61291;52.524;13.422;2023-04-02T11:13:14;10.20;95.00
5711;DHT22;61291;52.524;13.422;2023-04-02T11:15:42;10.50;94.90
5711;DHT22;61291;52.524;13.422;2023-04-02T11:21:00;10.80;95.70
5711;DHT22;61291;52.524;13.422;2023-04-02T11:23:31;11.00;95.60
5711;DHT22;61291;52.524;13.422;2023-04-02T11:29:01;11.50;94.40
5711;DHT22;61291;52.524;13.422;2023-04-02T11:31:29;11.90;94.60
5711;DHT22;61291;52.524;13.422;2023-04-02T11:33:54;11.70;94.60
5711;DHT22;61291;52.524;13.422;2023-04-02T11:39:45;9.50;95.20
5711;DHT22;61291;52.524;13.422;2023-04-02T11:42:33;9.30;95.00
5711;DHT22;61291;52.524;13.422;2023-04-02T11:50:43;10.20;95.30
5711;DHT22;61291;52.524;13.422;2023-04-02T11:59:17;12.40;92.50
5711;DHT22;61291;52.524;13.422;2023-04-02T12:02:09;12.40;92.40
5711;DHT22;61291;52.524;13.422;2023-04-02T12:04:56;11.80;92.40
5711;DHT22;61291;52.524;13.422;2023-04-02T12:07:40;11.60;92.70
5711;DHT22;61291;52.524;13.422;2023-04-02T12:10:19;11.90;93.00
5711;DHT22;61291;52.524;13.422;2023-04-02T12:12:45;11.60;93.20
5711;DHT22;61291;52.524;13.422;2023-04-02T12:15:46;11.80;93.50
5711;DHT22;61291;52.524;13.422;2023-04-02T12:20:39;11.60;93.50
5711;DHT22;61291;52.524;13.422;2023-04-02T12:23:16;11.80;92.90
5711;DHT22;61291;52.524;13.422;2023-04-02T12:25:44;11.70;92.40
5711;DHT22;61291;52.524;13.422;2023-04-02T12:28:17;11.80;92.30
5711;DHT22;61291;52.524;13.422;2023-04-02T12:30:44;11.80;91.90
5711;DHT22;61291;52.524;13.422;2023-04-02T12:33:25;11.70;92.30
5711;DHT22;61291;52.524;13.422;2023-04-02T12:35:58;11.70;91.80
5711;DHT22;61291;52.524;13.422;2023-04-02T12:38:30;12.30;91.90
5711;DHT22;61291;52.524;13.422;2023-04-02T12:41:00;12.60;91.60
5711;DHT22;61291;52.524;13.422;2023-04-02T12:43:28;11.90;91.50
5711;DHT22;61291;52.524;13.422;2023-04-02T12:45:57;12.10;91.60
5711;DHT22;61291;52.524;13.422;2023-04-02T12:48:24;11.20;91.70
5711;DHT22;61291;52.524;13.422;2023-04-02T12:50:50;10.60;92.20
5711;DHT22;61291;52.524;13.422;2023-04-02T12:55:58;11.00;91.90
5711;DHT22;61291;52.524;13.422;2023-04-02T12:58:27;10.20;91.30
5711;DHT22;61291;52.524;13.422;2023-04-02T13:01:09;10.50;91.70
5711;DHT22;61291;52.524;13.422;2023-04-02T13:03:34;11.00;91.70
5711;DHT22;61291;52.524;13.422;2023-04-02T13:06:00;12.10;91.80
5711;DHT22;61291;52.524;13.422;2023-04-02T13:08:30;12.50;91.20
5711;DHT22;61291;52.524;13.422;2023-04-02T13:11:02;11.80;90.10
5711;DHT22;61291;52.524;13.422;2023-04-02T13:13:33;11.30;90.60
5711;DHT22;61291;52.524;13.422;2023-04-02T13:16:02;11.80;90.90
5711;DHT22;61291;52.524;13.422;2023-04-02T13:18:28;12.10;90.60
5711;DHT22;61291;52.524;13.422;2023-04-02T13:20:56;12.00;91.20
5711;DHT22;61291;52.524;13.422;2023-04-02T13:26:00;10.20;91.80
5711;DHT22;61291;52.524;13.422;2023-04-02T13:28:28;10.40;91.70
5711;DHT22;61291;52.524;13.422;2023-04-02T13:30:53;10.50;91.80
5711;DHT22;61291;52.524;13.422;2023-04-02T13:33:19;11.10;91.50
5711;DHT22;61291;52.524;13.422;2023-04-02T13:35:45;11.30;91.40
5711;DHT22;61291;52.524;13.422;2023-04-02T13:38:11;11.80;90.60
5711;DHT22;61291;52.524;13.422;2023-04-02T13:40:37;12.20;90.30
5711;DHT22;61291;52.524;13.422;2023-04-02T13:43:03;12.20;90.20
5711;DHT22;61291;52.524;13.422;2023-04-02T13:45:37;12.00;90.30
5711;DHT22;61291;52.524;13.422;2023-04-02T13:48:03;11.90;90.70
5711;DHT22;61291;52.524;13.422;2023-04-02T13:50:32;11.90;90.90
5711;DHT22;61291;52.524;13.422;2023-04-02T13:53:03;11.20;91.20
5711;DHT22;61291;52.524;13.422;2023-04-02T13:55:30;11.50;91.20
5711;DHT22;61291;52.524;13.422;2023-04-02T13:57:59;12.30;90.90
5711;DHT22;61291;52.524;13.422;2023-04-02T14:00:25;11.80;90.70
5711;DHT22;61291;52.524;13.422;2023-04-02T14:03:02;11.00;90.90
5711;DHT22;61291;52.524;13.422;2023-04-02T14:06:18;10.70;91.30
5711;DHT22;61291;52.524;13.422;2023-04-02T14:09:09;9.80;92.00
5711;DHT22;61291;52.524;13.422;2023-04-02T14:15:13;11.30;91.50
5711;DHT22;61291;52.524;13.422;2023-04-02T14:20:40;10.70;90.80
5711;DHT22;61291;52.524;13.422;2023-04-02T14:23:14;10.40;91.30
5711;DHT22;61291;52.524;13.422;2023-04-02T14:25:48;10.10;91.00
5711;DHT22;61291;52.524;13.422;2023-04-02T14:28:33;9.70;91.40
5711;DHT22;61291;52.524;13.422;2023-04-02T14:31:32;10.50;91.50
5711;DHT22;61291;52.524;13.422;2023-04-02T14:39:40;10.30;90.60
5711;DHT22;61291;52.524;13.422;2023-04-02T14:42:14;10.20;91.10
5711;DHT22;61291;52.524;13.422;2023-04-02T14:44:49;10.30;91.50
5711;DHT22;61291;52.524;13.422;2023-04-02T14:47:22;10.70;91.40
5711;DHT22;61291;52.524;13.422;2023-04-02T14:49:53;10.60;91.30
5711;DHT22;61291;52.524;13.422;2023-04-02T14:52:22;10.20;91.60
5711;DHT22;61291;52.524;13.422;2023-04-02T14:54:58;9.40;92.00
5711;DHT22;61291;52.524;13.422;2023-04-02T14:57:39;10.10;91.60
5711;DHT22;61291;52.524;13.422;2023-04-02T15:00:25;9.60;91.70
5711;DHT22;61291;52.524;13.422;2023-04-02T15:03:10;9.60;92.00
5711;DHT22;61291;52.524;13.422;2023-04-02T15:05:47;9.40;91.90
5711;DHT22;61291;52.524;13.422;2023-04-02T15:08:26;9.40;92.00
5711;DHT22;61291;52.524;13.422;2023-04-02T15:11:06;9.50;92.10
5711;DHT22;61291;52.524;13.422;2023-04-02T15:13:39;9.70;92.30
5711;DHT22;61291;52.524;13.422;2023-04-02T15:18:34;9.00;92.40
5711;DHT22;61291;52.524;13.422;2023-04-02T15:21:06;8.70;92.90
5711;DHT22;61291;52.524;13.422;2023-04-02T15:23:42;8.60;92.80
5711;DHT22;61291;52.524;13.422;2023-04-02T15:28:58;8.60;92.80
5711;DHT22;61291;52.524;13.422;2023-04-02T15:31:27;9.00;92.90
5711;DHT22;61291;52.524;13.422;2023-04-02T15:39:29;8.40;93.20
5711;DHT22;61291;52.524;13.422;2023-04-02T15:44:33;8.80;93.30
5711;DHT22;61291;52.524;13.422;2023-04-02T15:47:22;9.10;93.00
5711;DHT22;61291;52.524;13.422;2023-04-02T15:55:37;8.20;93.00
5711;DHT22;61291;52.524;13.422;2023-04-02T15:58:44;8.00;92.90
5711;DHT22;61291;52.524;13.422;2023-04-02T16:01:35;8.00;92.60
5711;DHT22;61291;52.524;13.422;2023-04-02T16:07:52;8.70;92.80
5711;DHT22;61291;52.524;13.422;2023-04-02T16:10:32;8.80;93.10
5711;DHT22;61291;52.524;13.422;2023-04-02T16:12:57;8.30;92.50
5711;DHT22;61291;52.524;13.422;2023-04-02T16:15:36;8.20;92.50
5711;DHT22;61291;52.524;13.422;2023-04-02T16:18:11;7.80;93.00
5711;DHT22;61291;52.524;13.422;2023-04-02T16:20:45;7.60;93.40
5711;DHT22;61291;52.524;13.422;2023-04-02T16:23:21;7.50;93.60
5711;DHT22;61291;52.524;13.422;2023-04-02T16:25:51;7.70;93.70
5711;DHT22;61291;52.524;13.422;2023-04-02T16:28:44;7.80;93.70
5711;DHT22;61291;52.524;13.422;2023-04-02T16:31:45;7.80;93.50
5711;DHT22;61291;52.524;13.422;2023-04-02T16:34:21;7.80;93.70
5711;DHT22;61291;52.524;13.422;2023-04-02T16:40:22;7.30;93.20
5711;DHT22;61291;52.524;13.422;2023-04-02T16:43:00;7.40;93.50
5711;DHT22;61291;52.524;13.422;2023-04-02T16:51:33;7.40;93.70
5711;DHT22;61291;52.524;13.422;2023-04-02T16:54:22;7.20;93.80
5711;DHT22;61291;52.524;13.422;2023-04-02T17:00:11;7.10;94.00
5711;DHT22;61291;52.524;13.422;2023-04-02T17:03:01;7.10;94.30
5711;DHT22;61291;52.524;13.422;2023-04-02T17:05:32;6.80;94.30
5711;DHT22;61291;52.524;13.422;2023-04-02T17:16:19;6.70;94.90
5711;DHT22;61291;52.524;13.422;2023-04-02T17:18:48;6.80;94.90
5711;DHT22;61291;52.524;13.422;2023-04-02T17:21:21;6.60;95.10
5711;DHT22;61291;52.524;13.422;2023-04-02T17:23:54;6.60;95.20
5711;DHT22;61291;52.524;13.422;2023-04-02T17:26:24;6.50;95.50
5711;DHT22;61291;52.524;13.422;2023-04-02T17:28:52;6.30;95.90
5711;DHT22;61291;52.524;13.422;2023-04-02T17:31:23;6.10;96.00
5711;DHT22;61291;52.524;13.422;2023-04-02T17:33:49;6.10;96.20
5711;DHT22;61291;52.524;13.422;2023-04-02T17:41:50;5.80;97.00
5711;DHT22;61291;52.524;13.422;2023-04-02T17:44:48;5.70;97.00
5711;DHT22;61291;52.524;13.422;2023-04-02T17:47:22;5.60;97.40
5711;DHT22;61291;52.524;13.422;2023-04-02T17:52:50;5.40;98.10
5711;DHT22;61291;52.524;13.422;2023-04-02T18:01:04;5.30;99.00
5711;DHT22;61291;52.524;13.422;2023-04-02T18:03:52;5.20;99.10
5711;DHT22;61291;52.524;13.422;2023-04-02T18:06:44;5.10;99.60
5711;DHT22;61291;52.524;13.422;2023-04-02T18:09:32;5.10;99.80
5711;DHT22;61291;52.524;13.422;2023-04-02T18:12:24;5.00;99.90
5711;DHT22;61291;52.524;13.422;2023-04-02T18:17:53;4.80;99.90
5711;DHT22;61291;52.524;13.422;2023-04-02T18:20:51;4.80;99.90
5711;DHT22;61291;52.524;13.422;2023-04-02T18:29:15;4.70;99.90
5711;DHT22;61291;52.524;13.422;2023-04-02T18:37:42;4.60;99.90
5711;DHT22;61291;52.524;13.422;2023-04-02T18:43:17;4.50;99.90
5711;DHT22;61291;52.524;13.422;2023-04-02T18:51:19;4.30;99.90
5711;DHT22;61291;52.524;13.422;2023-04-02T18:53:52;4.30;99.90
5711;DHT22;61291;52.524;13.422;2023-04-02T18:56:19;4.20;99.90
5711;DHT22;61291;52.524;13.422;2023-04-02T18:59:06;4.10;99.90
5711;DHT22;61291;52.524;13.422;2023-04-02T19:01:42;4.10;99.90
5711;DHT22;61291;52.524;13.422;2023-04-02T19:04:16;4.10;99.90
5711;DHT22;61291;52.524;13.422;2023-04-02T19:06:47;4.00;99.90
5711;DHT22;61291;52.524;13.422;2023-04-02T19:09:16;4.00;99.90
5711;DHT22;61291;52.524;13.422;2023-04-02T19:11:45;4.00;99.90
5711;DHT22;61291;52.524;13.422;2023-04-02T19:14:15;3.80;99.90
5711;DHT22;61291;52.524;13.422;2023-04-02T19:16:52;3.90;99.90
5711;DHT22;61291;52.524;13.422;2023-04-02T19:19:28;3.80;99.90
5711;DHT22;61291;52.524;13.422;2023-04-02T19:28:06;3.80;99.90
5711;DHT22;61291;52.524;13.422;2023-04-02T19:30:55;3.80;99.90
5711;DHT22;61291;52.524;13.422;2023-04-02T19:33:48;3.70;99.90
5711;DHT22;61291;52.524;13.422;2023-04-02T19:36:43;3.70;99.90
5711;DHT22;61291;52.524;13.422;2023-04-02T19:39:40;3.70;99.90
5711;DHT22;61291;52.524;13.422;2023-04-02T19:42:18;3.60;99.90
5711;DHT22;61291;52.524;13.422;2023-04-02T19:44:49;3.60;99.90
5711;DHT22;61291;52.524;13.422;2023-04-02T19:47:16;3.60;99.90
5711;DHT22;61291;52.524;13.422;2023-04-02T19:49:42;3.50;99.90
5711;DHT22;61291;52.524;13.422;2023-04-02T19:52:08;3.40;99.90
5711;DHT22;61291;52.524;13.422;2023-04-02T19:54:34;3.40;99.90
5711;DHT22;61291;52.524;13.422;2023-04-02T19:56:59;3.30;99.90
5711;DHT22;61291;52.524;13.422;2023-04-02T19:59:25;3.30;99.90
5711;DHT22;61291;52.524;13.422;2023-04-02T20:01:51;3.20;99.90
5711;DHT22;61291;52.524;13.422;2023-04-02T20:04:16;3.20;99.90